Terminal Aerodrome Forecast
Issued by NWS

Home | Current Version | Previous Version | Text Only | Print | Product List | Glossary On
Versions: 1 2 3 4 5 6 7 8 9 10 11 12 13 14 15
000
FTUS41 KPBZ 230734 AAA
TAFDUJ
TAF AMD
KDUJ 230734Z 2308/2406 22008KT P6SM BKN009
     FM230900 19008KT P6SM VCSH OVC025
     FM231200 19006KT 3SM -SHRA OVC015
     FM231600 23011KT 5SM SHRA VCTS OVC015CB
     FM240000 23008KT 3SM SHRA BR OVC008
     FM240400 26004KT P6SM VCSH OVC004=

USA.gov is the U.S. government's official web portal to all federal, state and local government web resources and services.